createdAt,value
2023-01-23T00:00:09.187Z,0.75
2023-01-23T00:00:21.880Z,0.75
2023-01-23T00:00:33.661Z,0.72
2023-01-23T00:00:44.449Z,0.75
2023-01-23T00:00:56.661Z,0.75
2023-01-23T00:01:08.661Z,0.72
2023-01-23T00:01:19.518Z,0.75
2023-01-23T00:01:30.461Z,0.75
2023-01-23T00:01:43.175Z,0.75
2023-01-23T00:01:53.986Z,0.72
2023-01-23T00:02:06.515Z,0.72
2023-01-23T00:02:18.290Z,0.72
2023-01-23T00:02:30.530Z,0.72
2023-01-23T00:02:41.333Z,0.75
2023-01-23T00:02:52.059Z,0.71
2023-01-23T00:03:04.510Z,0.72
2023-01-23T00:03:16.759Z,0.75
2023-01-23T00:03:28.489Z,0.72
2023-01-23T00:03:40.299Z,0.72
2023-01-23T00:03:51.095Z,0.72
2023-01-23T00:04:01.907Z,0.72
2023-01-23T00:04:13.819Z,0.72
2023-01-23T00:04:24.649Z,0.72
2023-01-23T00:04:36.360Z,0.72
2023-01-23T00:04:48.109Z,0.75
2023-01-23T00:05:01.367Z,0.72
2023-01-23T00:05:13.577Z,0.72
2023-01-23T00:05:25.326Z,0.75
2023-01-23T00:05:36.058Z,0.72
2023-01-23T00:05:46.850Z,0.75
2023-01-23T00:05:57.663Z,0.72
2023-01-23T00:06:08.470Z,0.75
2023-01-23T00:06:19.262Z,0.72
2023-01-23T00:06:30.978Z,0.72
2023-01-23T00:06:42.727Z,0.72
2023-01-23T00:06:55.167Z,0.72
2023-01-23T00:07:08.398Z,0.72
2023-01-23T00:07:21.610Z,0.72
2023-01-23T00:07:32.349Z,0.72
2023-01-23T00:07:43.173Z,0.72
2023-01-23T00:07:53.959Z,0.72
2023-01-23T00:08:07.688Z,0.72
2023-01-23T00:08:22.835Z,0.75
2023-01-23T00:08:34.711Z,0.72
2023-01-23T00:08:45.471Z,0.72
2023-01-23T00:08:56.237Z,0.72
2023-01-23T00:09:07.009Z,0.75
2023-01-23T00:09:18.738Z,0.72
2023-01-23T00:09:29.510Z,0.72
2023-01-23T00:09:40.248Z,0.72
2023-01-23T00:09:51.019Z,0.72
2023-01-23T00:10:01.833Z,0.75
2023-01-23T00:10:12.581Z,0.71
2023-01-23T00:10:24.298Z,0.72
2023-01-23T00:10:36.754Z,0.72
2023-01-23T00:10:49.239Z,0.71
2023-01-23T00:11:02.457Z,0.72
2023-01-23T00:11:14.976Z,0.71
2023-01-23T00:11:27.448Z,0.71
2023-01-23T00:11:39.189Z,0.71
2023-01-23T00:11:51.641Z,0.72
2023-01-23T00:12:04.911Z,0.71
2023-01-23T00:12:19.124Z,0.72
2023-01-23T00:12:32.352Z,0.72
2023-01-23T00:12:44.754Z,0.71
2023-01-23T00:12:56.970Z,0.71
2023-01-23T00:13:09.940Z,0.71
2023-01-23T00:13:20.711Z,0.72
2023-01-23T00:13:33.683Z,0.71
2023-01-23T00:13:44.460Z,0.71
2023-01-23T00:13:56.232Z,0.72
2023-01-23T00:14:06.994Z,0.71
2023-01-23T00:14:57.147Z,0.00
2023-01-23T00:15:09.372Z,0.71
2023-01-23T00:15:21.059Z,0.71
2023-01-23T00:15:34.320Z,0.71
2023-01-23T00:15:46.762Z,0.71
2023-01-23T00:15:59.265Z,0.71
2023-01-23T00:16:11.793Z,0.72
2023-01-23T00:16:22.567Z,0.71
2023-01-23T00:16:35.010Z,0.72
2023-01-23T00:16:45.744Z,0.72
2023-01-23T00:16:58.236Z,0.72
2023-01-23T00:17:08.966Z,0.72
2023-01-23T00:17:20.949Z,0.72
2023-01-23T00:17:34.192Z,0.72
2023-01-23T00:17:45.914Z,0.72
2023-01-23T00:17:57.705Z,0.72
2023-01-23T00:18:09.464Z,0.72
2023-01-23T00:18:20.244Z,0.72
2023-01-23T00:18:31.004Z,0.72
2023-01-23T00:18:42.776Z,0.75
2023-01-23T00:18:54.536Z,0.75
2023-01-23T00:19:06.287Z,0.75
2023-01-23T00:19:17.074Z,0.75
2023-01-23T00:19:28.804Z,0.72
2023-01-23T00:19:39.597Z,0.72
2023-01-23T00:19:50.344Z,0.75
2023-01-23T00:20:02.042Z,0.75
2023-01-23T00:20:12.817Z,0.75
2023-01-23T00:20:23.582Z,0.75
2023-01-23T00:20:34.376Z,0.72
2023-01-23T00:20:45.174Z,0.76
2023-01-23T00:20:56.976Z,0.75
2023-01-23T00:21:09.438Z,0.72
2023-01-23T00:21:21.654Z,0.75
2023-01-23T00:21:34.110Z,0.75
2023-01-23T00:21:47.063Z,0.72
2023-01-23T00:21:57.877Z,0.72
2023-01-23T00:22:08.644Z,0.75
2023-01-23T00:22:19.396Z,0.72
2023-01-23T00:22:31.156Z,0.75
2023-01-23T00:22:43.604Z,0.75
2023-01-23T00:22:54.416Z,0.75
2023-01-23T00:23:06.665Z,0.75
2023-01-23T00:23:17.415Z,0.75
2023-01-23T00:23:28.213Z,0.75
2023-01-23T00:23:41.448Z,0.75
2023-01-23T00:23:52.190Z,0.75
2023-01-23T00:24:03.888Z,0.75
2023-01-23T00:24:15.674Z,0.75
2023-01-23T00:24:26.424Z,0.76
2023-01-23T00:24:37.155Z,0.75
2023-01-23T00:24:47.956Z,0.75
2023-01-23T00:24:59.659Z,0.75
2023-01-23T00:25:10.408Z,0.75
2023-01-23T00:25:22.140Z,0.76
2023-01-23T00:25:33.857Z,0.75
2023-01-23T00:25:45.733Z,0.76
2023-01-23T00:25:57.477Z,0.75
2023-01-23T00:26:10.416Z,0.75
2023-01-23T00:26:21.186Z,0.76
2023-01-23T00:26:31.988Z,0.75
2023-01-23T00:26:42.726Z,0.75
2023-01-23T00:26:53.521Z,0.76
2023-01-23T00:27:05.076Z,0.75
2023-01-23T00:27:15.870Z,0.72
2023-01-23T00:27:27.592Z,0.76
2023-01-23T00:27:39.786Z,0.72
2023-01-23T00:27:53.535Z,0.76
2023-01-23T00:28:04.481Z,0.76
2023-01-23T00:28:16.957Z,0.75
2023-01-23T00:28:27.725Z,0.78
2023-01-23T00:28:39.450Z,0.75
2023-01-23T00:28:51.199Z,0.75
2023-01-23T00:29:04.435Z,0.72
2023-01-23T00:29:17.636Z,0.76
2023-01-23T00:29:28.417Z,0.76
2023-01-23T00:29:42.138Z,0.76
2023-01-23T00:29:52.925Z,0.78
2023-01-23T00:30:03.661Z,0.76
2023-01-23T00:30:14.437Z,0.76
2023-01-23T00:30:26.265Z,0.76
2023-01-23T00:30:38.737Z,0.76
2023-01-23T00:30:50.707Z,0.76
2023-01-23T00:31:01.596Z,0.78
2023-01-23T00:31:12.443Z,0.78
2023-01-23T00:31:23.296Z,0.78
2023-01-23T00:31:36.018Z,0.76
2023-01-23T00:31:49.905Z,0.76
2023-01-23T00:32:02.483Z,0.76
2023-01-23T00:32:14.996Z,0.76
2023-01-23T00:32:27.476Z,0.76
2023-01-23T00:32:38.261Z,0.78
2023-01-23T00:32:51.251Z,0.76
2023-01-23T00:33:04.182Z,0.78
2023-01-23T00:33:15.908Z,0.78
2023-01-23T00:33:29.136Z,0.78
2023-01-23T00:33:41.393Z,0.78
2023-01-23T00:33:52.296Z,0.78
2023-01-23T00:34:05.018Z,0.76
2023-01-23T00:34:16.793Z,0.78
2023-01-23T00:34:27.559Z,0.78
2023-01-23T00:34:38.298Z,0.78
2023-01-23T00:34:50.529Z,0.78
2023-01-23T00:35:01.305Z,0.78
2023-01-23T00:35:12.052Z,0.76
2023-01-23T00:35:22.827Z,0.78
2023-01-23T00:35:34.572Z,0.78
2023-01-23T00:35:47.266Z,0.76
2023-01-23T00:35:59.003Z,0.76
2023-01-23T00:36:11.252Z,0.78
2023-01-23T00:36:23.709Z,0.78
2023-01-23T00:36:34.478Z,0.76
2023-01-23T00:36:47.957Z,0.78
2023-01-23T00:37:00.367Z,0.78
2023-01-23T00:37:11.149Z,0.76
2023-01-23T00:37:24.349Z,0.76
2023-01-23T00:37:36.299Z,0.76
2023-01-23T00:37:48.109Z,0.76
2023-01-23T00:38:01.756Z,0.76
2023-01-23T00:38:14.234Z,0.76
2023-01-23T00:38:26.448Z,0.76
2023-01-23T00:38:38.897Z,0.76
2023-01-23T00:38:50.889Z,0.76
2023-01-23T00:39:02.746Z,0.76
2023-01-23T00:39:13.620Z,0.76
2023-01-23T00:39:26.841Z,0.76
2023-01-23T00:39:37.578Z,0.76
2023-01-23T00:39:48.364Z,0.75
2023-01-23T00:40:00.607Z,0.76
2023-01-23T00:40:13.088Z,0.76
2023-01-23T00:40:25.657Z,0.75
2023-01-23T00:40:36.484Z,0.75
2023-01-23T00:40:48.266Z,0.75
2023-01-23T00:40:59.980Z,0.75
2023-01-23T00:41:10.749Z,0.76
2023-01-23T00:41:21.529Z,0.75
2023-01-23T00:41:32.280Z,0.75
2023-01-23T00:41:43.056Z,0.76
2023-01-23T00:41:53.810Z,0.76
2023-01-23T00:42:06.293Z,0.75
2023-01-23T00:42:18.777Z,0.76
2023-01-23T00:42:31.222Z,0.76
2023-01-23T00:42:42.033Z,0.75
2023-01-23T00:42:52.810Z,0.76
2023-01-23T00:43:03.632Z,0.78
2023-01-23T00:43:14.370Z,0.76
2023-01-23T00:43:26.874Z,0.76
2023-01-23T00:43:37.641Z,0.75
2023-01-23T00:43:48.441Z,0.75
2023-01-23T00:44:00.635Z,0.76
2023-01-23T00:44:13.589Z,0.78
2023-01-23T00:44:25.831Z,0.76
2023-01-23T00:44:36.570Z,0.76
2023-01-23T00:44:49.010Z,0.76
2023-01-23T00:44:59.741Z,0.75
2023-01-23T00:45:10.505Z,0.75
2023-01-23T00:45:21.286Z,0.76
2023-01-23T00:45:32.049Z,0.75
2023-01-23T00:45:43.800Z,0.75
2023-01-23T00:45:55.562Z,0.75
2023-01-23T00:46:06.359Z,0.75
2023-01-23T00:46:18.922Z,0.76
2023-01-23T00:46:29.812Z,0.76
2023-01-23T00:46:40.641Z,0.78
2023-01-23T00:46:51.429Z,0.76
2023-01-23T00:47:02.218Z,0.76
2023-01-23T00:47:13.946Z,0.76
2023-01-23T00:47:24.746Z,0.76
2023-01-23T00:47:35.479Z,0.75
2023-01-23T00:47:46.288Z,0.76
2023-01-23T00:47:59.252Z,0.75
2023-01-23T00:48:10.044Z,0.78
2023-01-23T00:48:22.488Z,0.76
2023-01-23T00:48:35.702Z,0.76
2023-01-23T00:48:48.916Z,0.76
2023-01-23T00:49:01.191Z,0.76
2023-01-23T00:49:12.912Z,0.75
2023-01-23T00:49:25.360Z,0.75
2023-01-23T00:49:36.099Z,0.76
2023-01-23T00:49:48.790Z,0.76
2023-01-23T00:49:59.540Z,0.76
2023-01-23T00:50:10.279Z,0.76
2023-01-23T00:50:21.377Z,0.76
2023-01-23T00:50:33.160Z,0.76
2023-01-23T00:50:43.964Z,0.76
2023-01-23T00:50:55.864Z,0.76
2023-01-23T00:51:06.668Z,0.76
2023-01-23T00:51:19.220Z,0.76
2023-01-23T00:51:31.665Z,0.76
2023-01-23T00:51:42.461Z,0.76
2023-01-23T00:51:53.190Z,0.75
2023-01-23T00:52:03.925Z,0.76
2023-01-23T00:52:16.850Z,0.75
2023-01-23T00:52:29.092Z,0.76
2023-01-23T00:52:40.833Z,0.76
2023-01-23T00:52:51.652Z,0.76
2023-01-23T00:53:02.412Z,0.76
2023-01-23T00:53:14.870Z,0.75
2023-01-23T00:53:27.836Z,0.75
2023-01-23T00:53:40.540Z,0.76
2023-01-23T00:53:51.320Z,0.76
2023-01-23T00:54:03.084Z,0.76
2023-01-23T00:54:14.825Z,0.76
2023-01-23T00:54:27.280Z,0.76
2023-01-23T00:54:39.083Z,0.78
2023-01-23T00:54:49.881Z,0.76
2023-01-23T00:55:01.560Z,0.76
2023-01-23T00:55:13.280Z,0.75
2023-01-23T00:55:25.752Z,0.78
2023-01-23T00:55:36.478Z,0.76
2023-01-23T00:55:48.914Z,0.76
2023-01-23T00:56:01.202Z,0.76
2023-01-23T00:56:12.929Z,0.76
2023-01-23T00:56:23.682Z,0.76
2023-01-23T00:56:36.824Z,0.76
2023-01-23T00:56:48.615Z,0.76
2023-01-23T00:56:59.488Z,0.78
2023-01-23T00:57:11.244Z,0.76
2023-01-23T00:57:23.969Z,0.78
2023-01-23T00:57:36.442Z,0.76
2023-01-23T00:57:48.152Z,0.78
2023-01-23T00:58:00.604Z,0.76
2023-01-23T00:58:12.345Z,0.78
2023-01-23T00:58:24.553Z,0.76
2023-01-23T00:58:37.023Z,0.76
2023-01-23T00:58:49.730Z,0.78
2023-01-23T00:59:02.678Z,0.75
2023-01-23T00:59:15.898Z,0.76
2023-01-23T00:59:26.649Z,0.76
2023-01-23T00:59:37.381Z,0.76
2023-01-23T00:59:50.620Z,0.78
2023-01-23T01:00:01.466Z,0.76
2023-01-23T01:00:12.481Z,0.78
2023-01-23T01:00:23.292Z,0.78
2023-01-23T01:00:35.561Z,0.78
2023-01-23T01:00:47.375Z,0.76
2023-01-23T01:00:59.148Z,0.76
2023-01-23T01:01:11.129Z,0.78
2023-01-23T01:01:21.918Z,0.78
2023-01-23T01:01:32.742Z,0.78
2023-01-23T01:01:43.572Z,0.78
2023-01-23T01:01:56.332Z,0.76
2023-01-23T01:02:07.161Z,0.78
2023-01-23T01:02:17.982Z,0.78
2023-01-23T01:02:28.855Z,0.78
2023-01-23T01:02:40.654Z,0.78
2023-01-23T01:02:51.576Z,0.76
2023-01-23T01:03:03.355Z,0.79
2023-01-23T01:03:15.125Z,0.76
2023-01-23T01:03:27.603Z,0.78
2023-01-23T01:03:38.391Z,0.78
2023-01-23T01:03:49.203Z,0.78
2023-01-23T01:04:00.095Z,0.78
2023-01-23T01:04:10.884Z,0.78
2023-01-23T01:04:23.380Z,0.78
2023-01-23T01:04:34.172Z,0.79
2023-01-23T01:04:47.966Z,0.78
2023-01-23T01:05:00.452Z,0.78
2023-01-23T01:05:11.263Z,0.78
2023-01-23T01:05:22.096Z,0.78
2023-01-23T01:05:32.882Z,0.79
2023-01-23T01:05:45.332Z,0.78
2023-01-23T01:05:57.064Z,0.78
2023-01-23T01:06:09.530Z,0.78
2023-01-23T01:06:22.496Z,0.79
2023-01-23T01:06:34.196Z,0.78
2023-01-23T01:06:46.915Z,0.78
2023-01-23T01:06:59.344Z,0.79
2023-01-23T01:07:11.824Z,0.78
2023-01-23T01:07:24.087Z,0.78
2023-01-23T01:07:36.535Z,0.78
2023-01-23T01:07:47.366Z,0.79
2023-01-23T01:07:59.157Z,0.79
2023-01-23T01:08:11.643Z,0.78
2023-01-23T01:08:23.863Z,0.78
2023-01-23T01:08:34.604Z,0.78
2023-01-23T01:08:46.813Z,0.79
2023-01-23T01:08:57.587Z,0.79
2023-01-23T01:09:08.343Z,0.80
2023-01-23T01:09:19.148Z,0.79
2023-01-23T01:09:31.572Z,0.79
2023-01-23T01:09:44.051Z,0.79
2023-01-23T01:09:54.766Z,0.79
2023-01-23T01:10:05.530Z,0.79
2023-01-23T01:10:16.262Z,0.78
2023-01-23T01:10:28.504Z,0.78
2023-01-23T01:10:40.721Z,0.79
2023-01-23T01:10:52.432Z,0.79
2023-01-23T01:11:04.914Z,0.79
2023-01-23T01:11:16.605Z,0.80
2023-01-23T01:11:27.402Z,0.79
2023-01-23T01:11:38.236Z,0.78
2023-01-23T01:11:49.006Z,0.78
2023-01-23T01:11:59.763Z,0.79
2023-01-23T01:12:12.723Z,0.80
2023-01-23T01:12:23.523Z,0.78
2023-01-23T01:12:34.310Z,0.79
2023-01-23T01:12:46.084Z,0.79
2023-01-23T01:12:56.866Z,0.79
2023-01-23T01:13:07.663Z,0.78
2023-01-23T01:13:19.412Z,0.79
2023-01-23T01:13:30.146Z,0.78
2023-01-23T01:13:41.183Z,0.79
2023-01-23T01:13:52.914Z,0.78
2023-01-23T01:14:03.724Z,0.79
2023-01-23T01:14:14.532Z,0.79
2023-01-23T01:14:25.383Z,0.79
2023-01-23T01:14:36.135Z,0.78
2023-01-23T01:14:46.937Z,0.79
2023-01-23T01:14:58.664Z,0.78
2023-01-23T01:15:10.401Z,0.79
2023-01-23T01:15:26.176Z,0.78
2023-01-23T01:15:37.933Z,0.78
2023-01-23T01:15:51.125Z,0.78
2023-01-23T01:16:02.902Z,0.78
2023-01-23T01:16:13.687Z,0.79
2023-01-23T01:16:26.177Z,0.79
2023-01-23T01:16:36.953Z,0.79
2023-01-23T01:16:47.746Z,0.78
2023-01-23T01:16:58.522Z,0.78
2023-01-23T01:17:09.304Z,0.79
2023-01-23T01:17:20.325Z,0.78
2023-01-23T01:17:33.547Z,0.78
2023-01-23T01:17:44.336Z,0.78
2023-01-23T01:17:55.140Z,0.79
2023-01-23T01:18:05.881Z,0.78
2023-01-23T01:18:19.086Z,0.79
2023-01-23T01:18:29.827Z,0.79
2023-01-23T01:18:41.608Z,0.78
2023-01-23T01:18:52.406Z,0.79
2023-01-23T01:19:04.143Z,0.78
2023-01-23T01:19:16.475Z,0.79
2023-01-23T01:19:28.464Z,0.79
2023-01-23T01:19:39.220Z,0.78
2023-01-23T01:19:50.944Z,0.79
2023-01-23T01:20:01.674Z,0.78
2023-01-23T01:20:12.424Z,0.78
2023-01-23T01:20:24.656Z,0.78
2023-01-23T01:20:37.107Z,0.79
2023-01-23T01:20:48.834Z,0.78
2023-01-23T01:20:59.576Z,0.78
2023-01-23T01:21:11.300Z,0.78
2023-01-23T01:21:22.069Z,0.78
2023-01-23T01:21:32.875Z,0.76
2023-01-23T01:21:43.624Z,0.78
2023-01-23T01:21:56.092Z,0.78
2023-01-23T01:22:06.863Z,0.78
2023-01-23T01:22:17.646Z,0.78
2023-01-23T01:22:29.922Z,0.78
2023-01-23T01:22:40.684Z,0.78
2023-01-23T01:22:52.424Z,0.78
2023-01-23T01:23:04.125Z,0.76
2023-01-23T01:23:15.887Z,0.78
2023-01-23T01:23:27.653Z,0.76
2023-01-23T01:23:40.086Z,0.78
2023-01-23T01:23:50.866Z,0.78
2023-01-23T01:24:02.594Z,0.76
2023-01-23T01:24:13.415Z,0.78
2023-01-23T01:24:24.194Z,0.78
2023-01-23T01:24:36.173Z,0.78
2023-01-23T01:24:46.968Z,0.79
2023-01-23T01:24:59.675Z,0.78
2023-01-23T01:25:11.312Z,0.79
2023-01-23T01:25:23.065Z,0.76
2023-01-23T01:25:35.298Z,0.78
2023-01-23T01:25:47.527Z,0.76
2023-01-23T01:25:59.566Z,0.76
2023-01-23T01:26:11.995Z,0.78
2023-01-23T01:26:22.807Z,0.79
2023-01-23T01:26:33.561Z,0.78
2023-01-23T01:26:46.679Z,0.79
2023-01-23T01:27:00.928Z,0.78
2023-01-23T01:27:13.196Z,0.79
2023-01-23T01:27:25.616Z,0.78
2023-01-23T01:27:38.373Z,0.78
2023-01-23T01:27:50.625Z,0.79
2023-01-23T01:28:03.795Z,0.78
2023-01-23T01:28:16.963Z,0.78
2023-01-23T01:28:28.694Z,0.78
2023-01-23T01:28:39.484Z,0.78
2023-01-23T01:28:50.269Z,0.79
2023-01-23T01:29:02.003Z,0.78
2023-01-23T01:29:13.725Z,0.79
2023-01-23T01:29:26.176Z,0.78
2023-01-23T01:29:36.927Z,0.78
2023-01-23T01:29:47.688Z,0.78
2023-01-23T01:29:59.321Z,0.78
2023-01-23T01:30:11.801Z,0.79
2023-01-23T01:30:23.962Z,0.79
2023-01-23T01:30:34.828Z,0.79
2023-01-23T01:30:49.095Z,0.79
2023-01-23T01:31:00.005Z,0.78
2023-01-23T01:31:10.893Z,0.78
2023-01-23T01:31:22.766Z,0.78
2023-01-23T01:31:33.653Z,0.79
2023-01-23T01:31:45.486Z,0.79
2023-01-23T01:31:57.232Z,0.79
2023-01-23T01:32:08.017Z,0.78
2023-01-23T01:32:18.756Z,0.79
2023-01-23T01:32:29.546Z,0.79
2023-01-23T01:32:42.696Z,0.79
2023-01-23T01:32:55.160Z,0.79
2023-01-23T01:33:06.946Z,0.79
2023-01-23T01:33:18.713Z,0.78
2023-01-23T01:33:30.445Z,0.79
2023-01-23T01:33:41.242Z,0.78
2023-01-23T01:33:52.966Z,0.79
2023-01-23T01:34:03.747Z,0.79
2023-01-23T01:34:15.500Z,0.79
2023-01-23T01:34:26.281Z,0.78
2023-01-23T01:34:37.068Z,0.79
2023-01-23T01:34:47.809Z,0.79
2023-01-23T01:35:00.249Z,0.78
2023-01-23T01:35:11.978Z,0.79
2023-01-23T01:35:24.772Z,0.80
2023-01-23T01:35:36.584Z,0.78
2023-01-23T01:35:48.808Z,0.79
2023-01-23T01:36:02.561Z,0.79
2023-01-23T01:36:13.309Z,0.78
2023-01-23T01:36:25.809Z,0.79
2023-01-23T01:36:38.303Z,0.79
2023-01-23T01:36:50.037Z,0.78
2023-01-23T01:37:00.880Z,0.78
2023-01-23T01:37:13.917Z,0.78
2023-01-23T01:37:26.650Z,0.79
2023-01-23T01:37:37.418Z,0.79
2023-01-23T01:37:48.202Z,0.78
2023-01-23T01:37:59.948Z,0.79
2023-01-23T01:38:12.439Z,0.79
2023-01-23T01:38:23.216Z,0.79
2023-01-23T01:38:35.177Z,0.78
2023-01-23T01:38:45.961Z,0.78
2023-01-23T01:38:58.899Z,0.78
2023-01-23T01:39:09.718Z,0.79
2023-01-23T01:39:20.468Z,0.78
2023-01-23T01:39:31.222Z,0.78
2023-01-23T01:39:43.818Z,0.78
2023-01-23T01:39:54.614Z,0.79
2023-01-23T01:40:05.379Z,0.78
2023-01-23T01:40:17.868Z,0.79
2023-01-23T01:40:28.820Z,0.78
2023-01-23T01:40:39.588Z,0.79
2023-01-23T01:40:51.356Z,0.78
2023-01-23T01:41:02.196Z,0.79
2023-01-23T01:41:13.937Z,0.79
2023-01-23T01:41:26.182Z,0.78
2023-01-23T01:41:36.934Z,0.78
2023-01-23T01:41:47.666Z,0.79
2023-01-23T01:42:00.146Z,0.78
2023-01-23T01:42:12.381Z,0.79
2023-01-23T01:42:24.117Z,0.78
2023-01-23T01:42:36.348Z,0.78
2023-01-23T01:42:47.161Z,0.79
2023-01-23T01:42:58.902Z,0.79
2023-01-23T01:43:10.648Z,0.79
2023-01-23T01:43:22.423Z,0.79
2023-01-23T01:43:33.217Z,0.78
2023-01-23T01:43:45.439Z,0.79
2023-01-23T01:43:57.199Z,0.78
2023-01-23T01:44:07.941Z,0.78
2023-01-23T01:44:19.666Z,0.78
2023-01-23T01:44:30.412Z,0.78
2023-01-23T01:44:43.148Z,0.79
2023-01-23T01:44:53.978Z,0.79
2023-01-23T01:45:04.742Z,0.79
2023-01-23T01:45:17.169Z,0.79
2023-01-23T01:45:28.960Z,0.78
2023-01-23T01:45:39.757Z,0.78
2023-01-23T01:45:53.499Z,0.79
2023-01-23T01:46:06.013Z,0.78
2023-01-23T01:46:18.269Z,0.78
2023-01-23T01:46:30.793Z,0.78
2023-01-23T01:46:43.845Z,0.79
2023-01-23T01:46:56.216Z,0.79
2023-01-23T01:47:08.990Z,0.78
2023-01-23T01:47:22.612Z,0.78
2023-01-23T01:47:36.378Z,0.78
2023-01-23T01:47:48.819Z,0.79
2023-01-23T01:48:01.272Z,0.78
2023-01-23T01:48:13.008Z,0.79
2023-01-23T01:48:25.254Z,0.78
2023-01-23T01:48:36.999Z,0.78
2023-01-23T01:48:47.738Z,0.79
2023-01-23T01:49:00.218Z,0.80
2023-01-23T01:49:12.441Z,0.79
2023-01-23T01:49:24.158Z,0.79
2023-01-23T01:49:34.948Z,0.78
2023-01-23T01:49:46.684Z,0.80
2023-01-23T01:49:57.420Z,0.79
2023-01-23T01:50:08.162Z,0.78
2023-01-23T01:50:19.248Z,0.78
2023-01-23T01:50:30.078Z,0.78
2023-01-23T01:50:43.848Z,0.79
2023-01-23T01:50:57.606Z,0.79
2023-01-23T01:51:09.649Z,0.79
2023-01-23T01:51:20.407Z,0.80
2023-01-23T01:51:33.332Z,0.79
2023-01-23T01:51:45.790Z,0.79
2023-01-23T01:51:57.487Z,0.80
2023-01-23T01:52:09.943Z,0.80
2023-01-23T01:52:20.708Z,0.80
2023-01-23T01:52:31.460Z,0.79
2023-01-23T01:52:43.198Z,0.80
2023-01-23T01:52:55.670Z,0.79
2023-01-23T01:53:07.408Z,0.79
2023-01-23T01:53:18.221Z,0.79
2023-01-23T01:53:29.023Z,0.80
2023-01-23T01:53:41.758Z,0.79
2023-01-23T01:53:53.500Z,0.79
2023-01-23T01:54:07.276Z,0.80
2023-01-23T01:54:18.301Z,0.80
2023-01-23T01:54:29.088Z,0.80
2023-01-23T01:54:40.837Z,0.82
2023-01-23T01:54:54.555Z,0.80
2023-01-23T01:55:05.341Z,0.80
2023-01-23T01:55:17.098Z,0.80
2023-01-23T01:55:29.813Z,0.80
2023-01-23T01:55:42.291Z,0.80
2023-01-23T01:55:55.001Z,0.80
2023-01-23T01:56:05.853Z,0.80
2023-01-23T01:56:17.592Z,0.82
2023-01-23T01:56:30.039Z,0.82
2023-01-23T01:56:42.510Z,0.82
2023-01-23T01:56:54.039Z,0.82
2023-01-23T01:57:05.791Z,0.80
2023-01-23T01:57:17.539Z,0.80
2023-01-23T01:57:29.304Z,0.80
2023-01-23T01:57:40.201Z,0.80
2023-01-23T01:57:52.512Z,0.82
2023-01-23T01:58:04.989Z,0.80
2023-01-23T01:58:16.721Z,0.82
2023-01-23T01:58:29.201Z,0.80
2023-01-23T01:58:40.960Z,0.82
2023-01-23T01:58:52.707Z,0.80
2023-01-23T01:59:03.491Z,0.82
2023-01-23T01:59:15.725Z,0.82
2023-01-23T01:59:27.452Z,0.82
2023-01-23T01:59:42.218Z,0.82
2023-01-23T01:59:53.982Z,0.82
2023-01-23T02:00:04.762Z,0.82
2023-01-23T02:00:16.567Z,0.83
2023-01-23T02:00:28.427Z,0.82
2023-01-23T02:00:39.203Z,0.80
2023-01-23T02:00:50.067Z,0.80
2023-01-23T02:01:00.897Z,0.82
2023-01-23T02:01:12.679Z,0.80
2023-01-23T02:01:23.419Z,0.83
2023-01-23T02:01:34.189Z,0.80
2023-01-23T02:01:45.975Z,0.82
2023-01-23T02:01:57.682Z,0.82
2023-01-23T02:02:10.184Z,0.82
2023-01-23T02:02:21.017Z,0.82
2023-01-23T02:02:33.240Z,0.83
2023-01-23T02:02:45.461Z,0.83
2023-01-23T02:02:56.247Z,0.82
2023-01-23T02:03:06.982Z,0.82
2023-01-23T02:03:18.731Z,0.82
2023-01-23T02:03:30.459Z,0.82
2023-01-23T02:03:41.232Z,0.83
2023-01-23T02:03:53.699Z,0.82
2023-01-23T02:04:04.731Z,0.82
2023-01-23T02:04:16.479Z,0.83
2023-01-23T02:04:28.222Z,0.83
2023-01-23T02:04:40.462Z,0.83
2023-01-23T02:04:52.223Z,0.83
2023-01-23T02:05:04.691Z,0.83
2023-01-23T02:05:15.506Z,0.83
2023-01-23T02:05:27.994Z,0.82
2023-01-23T02:05:39.736Z,0.83
2023-01-23T02:05:51.950Z,0.82
2023-01-23T02:06:04.179Z,0.83
2023-01-23T02:06:16.214Z,0.83
2023-01-23T02:06:27.212Z,0.82
2023-01-23T02:06:39.020Z,0.82
2023-01-23T02:06:49.773Z,0.83
2023-01-23T02:07:02.050Z,0.83
2023-01-23T02:07:16.273Z,0.85
2023-01-23T02:07:28.490Z,0.82
2023-01-23T02:07:40.202Z,0.83
2023-01-23T02:07:53.921Z,0.82
2023-01-23T02:08:09.047Z,0.82
2023-01-23T02:08:21.631Z,0.83
2023-01-23T02:08:32.442Z,0.82
2023-01-23T02:08:43.232Z,0.82
2023-01-23T02:08:54.006Z,0.82
2023-01-23T02:09:05.737Z,0.80
2023-01-23T02:09:18.959Z,0.83
2023-01-23T02:09:29.704Z,0.82
2023-01-23T02:09:40.463Z,0.83
2023-01-23T02:09:51.241Z,0.83
2023-01-23T02:10:03.453Z,0.83
2023-01-23T02:10:15.192Z,0.82
2023-01-23T02:10:26.963Z,0.83
2023-01-23T02:10:39.412Z,0.83
2023-01-23T02:10:51.186Z,0.85
2023-01-23T02:11:02.886Z,0.83
2023-01-23T02:11:15.823Z,0.85
2023-01-23T02:11:27.543Z,0.83
2023-01-23T02:11:38.285Z,0.83
2023-01-23T02:11:49.099Z,0.83
2023-01-23T02:12:00.895Z,0.83
2023-01-23T02:12:11.646Z,0.83
2023-01-23T02:12:23.352Z,0.83
2023-01-23T02:12:35.825Z,0.83
2023-01-23T02:12:46.578Z,0.83
2023-01-23T02:12:57.357Z,0.83
2023-01-23T02:13:08.149Z,0.83
2023-01-23T02:13:20.594Z,0.83
2023-01-23T02:13:33.081Z,0.83
2023-01-23T02:13:45.527Z,0.83
2023-01-23T02:13:57.260Z,0.85
2023-01-23T02:14:09.715Z,0.83
2023-01-23T02:14:22.442Z,0.85
2023-01-23T02:14:33.187Z,0.85
2023-01-23T02:14:44.893Z,0.83
2023-01-23T02:14:57.613Z,0.85
2023-01-23T02:15:10.055Z,0.85
2023-01-23T02:15:21.859Z,0.83
2023-01-23T02:15:32.642Z,0.85
2023-01-23T02:15:45.618Z,0.83
2023-01-23T02:15:56.461Z,0.83
2023-01-23T02:16:08.181Z,0.85
2023-01-23T02:16:18.977Z,0.85
2023-01-23T02:16:30.794Z,0.83
2023-01-23T02:16:42.537Z,0.85
2023-01-23T02:16:54.997Z,0.83
2023-01-23T02:17:07.961Z,0.83
2023-01-23T02:17:18.764Z,0.85
2023-01-23T02:17:31.975Z,0.83
2023-01-23T02:17:43.712Z,0.85
2023-01-23T02:17:55.479Z,0.83
2023-01-23T02:18:06.283Z,0.83
2023-01-23T02:18:18.552Z,0.85
2023-01-23T02:18:30.274Z,0.83
2023-01-23T02:18:43.512Z,0.83
2023-01-23T02:18:56.055Z,0.82
2023-01-23T02:19:06.851Z,0.83
2023-01-23T02:19:18.635Z,0.85
2023-01-23T02:19:29.406Z,0.85
2023-01-23T02:19:41.206Z,0.83
2023-01-23T02:19:52.063Z,0.83
2023-01-23T02:20:03.836Z,0.83
2023-01-23T02:20:15.544Z,0.83
2023-01-23T02:20:26.308Z,0.83
2023-01-23T02:20:38.073Z,0.83
2023-01-23T02:20:49.797Z,0.83
2023-01-23T02:21:02.014Z,0.85
2023-01-23T02:21:14.312Z,0.83
2023-01-23T02:21:25.566Z,0.83
2023-01-23T02:21:37.325Z,0.82
2023-01-23T02:21:49.075Z,0.83
2023-01-23T02:21:59.865Z,0.82
2023-01-23T02:22:11.597Z,0.85
2023-01-23T02:22:22.342Z,0.83
2023-01-23T02:22:34.984Z,0.85
2023-01-23T02:22:46.683Z,0.83
2023-01-23T02:22:57.459Z,0.83
2023-01-23T02:23:09.245Z,0.85
2023-01-23T02:23:20.043Z,0.83
2023-01-23T02:23:30.797Z,0.82
2023-01-23T02:23:43.032Z,0.83
2023-01-23T02:23:53.845Z,0.85
2023-01-23T02:24:05.575Z,0.85
2023-01-23T02:24:16.337Z,0.85
2023-01-23T02:24:28.063Z,0.82
2023-01-23T02:24:39.085Z,0.85
2023-01-23T02:24:49.891Z,0.83
2023-01-23T02:25:00.663Z,0.83
2023-01-23T02:25:13.134Z,0.83
2023-01-23T02:25:23.925Z,0.85
2023-01-23T02:25:34.716Z,0.85
2023-01-23T02:25:46.708Z,0.85
2023-01-23T02:25:57.463Z,0.83
2023-01-23T02:26:09.208Z,0.86
2023-01-23T02:26:19.944Z,0.85
2023-01-23T02:26:31.657Z,0.85
2023-01-23T02:26:42.436Z,0.85
2023-01-23T02:26:54.138Z,0.83
2023-01-23T02:27:05.906Z,0.85
2023-01-23T02:27:16.737Z,0.83
2023-01-23T02:27:28.477Z,0.83
2023-01-23T02:27:40.684Z,0.83
2023-01-23T02:27:52.935Z,0.85
2023-01-23T02:28:03.696Z,0.85
2023-01-23T02:28:15.513Z,0.85
2023-01-23T02:28:26.335Z,0.86
2023-01-23T02:28:37.116Z,0.86
2023-01-23T02:28:47.905Z,0.85
2023-01-23T02:28:58.704Z,0.83
2023-01-23T02:29:11.418Z,0.85
2023-01-23T02:29:22.251Z,0.83
2023-01-23T02:29:34.774Z,0.83
2023-01-23T02:29:46.800Z,0.85
2023-01-23T02:29:59.215Z,0.85
2023-01-23T02:30:11.442Z,0.83
2023-01-23T02:30:23.190Z,0.85
2023-01-23T02:30:35.642Z,0.85
2023-01-23T02:30:47.447Z,0.85
2023-01-23T02:30:58.189Z,0.85
2023-01-23T02:31:10.028Z,0.85
2023-01-23T02:31:22.646Z,0.85
2023-01-23T02:31:34.523Z,0.85
2023-01-23T02:31:45.397Z,0.83
2023-01-23T02:31:56.398Z,0.85
2023-01-23T02:32:07.370Z,0.85
2023-01-23T02:32:19.885Z,0.85
2023-01-23T02:32:30.692Z,0.85
2023-01-23T02:32:41.502Z,0.85
2023-01-23T02:32:53.444Z,0.85
2023-01-23T02:33:05.107Z,0.85
2023-01-23T02:33:15.898Z,0.85
2023-01-23T02:33:29.644Z,0.86
2023-01-23T02:33:40.388Z,0.86
2023-01-23T02:33:51.394Z,0.85
2023-01-23T02:34:02.219Z,0.85
2023-01-23T02:34:13.966Z,0.85
2023-01-23T02:34:24.695Z,0.83
2023-01-23T02:34:36.405Z,0.85
2023-01-23T02:34:47.189Z,0.86
2023-01-23T02:34:59.636Z,0.86
2023-01-23T02:35:10.407Z,0.85
2023-01-23T02:35:22.126Z,0.85
2023-01-23T02:35:35.397Z,0.85
2023-01-23T02:35:46.158Z,0.85
2023-01-23T02:35:58.374Z,0.85
2023-01-23T02:36:10.141Z,0.86
2023-01-23T02:36:20.909Z,0.85